createdAt,value
2022-11-21T00:01:56.633Z,91.98
2022-11-21T00:05:59.931Z,92.22
2022-11-21T00:10:04.080Z,92.27
2022-11-21T00:14:07.385Z,92.35
2022-11-21T00:18:14.271Z,92.32
2022-11-21T00:22:17.553Z,92.15
2022-11-21T00:26:21.017Z,92.21
2022-11-21T00:30:24.378Z,92.19
2022-11-21T00:34:27.894Z,92.29
2022-11-21T00:38:31.424Z,92.27
2022-11-21T00:42:34.932Z,92.42
2022-11-21T00:46:38.197Z,92.52
2022-11-21T00:50:41.509Z,92.32
2022-11-21T00:54:44.836Z,92.30
2022-11-21T00:58:48.214Z,92.33
2022-11-21T01:02:51.551Z,92.25
2022-11-21T01:06:55.020Z,92.38
2022-11-21T01:11:03.642Z,92.32
2022-11-21T01:15:08.099Z,92.23
2022-11-21T01:19:11.506Z,92.30
2022-11-21T01:23:14.817Z,92.08
2022-11-21T01:27:18.205Z,91.87
2022-11-21T01:31:29.722Z,91.61
2022-11-21T01:35:33.040Z,91.34
2022-11-21T01:39:36.389Z,91.45
2022-11-21T01:43:40.251Z,91.62
2022-11-21T01:47:43.567Z,91.60
2022-11-21T01:52:05.070Z,91.50
2022-11-21T01:56:09.119Z,91.42
2022-11-21T02:00:24.614Z,90.63
2022-11-21T02:04:32.702Z,89.75
2022-11-21T02:08:37.444Z,89.36
2022-11-21T02:12:52.397Z,89.28
2022-11-21T02:17:00.708Z,90.09
2022-11-21T02:21:24.496Z,89.89
2022-11-21T02:25:31.299Z,89.54
2022-11-21T02:29:34.716Z,89.55
2022-11-21T02:33:38.447Z,89.55
2022-11-21T02:37:43.241Z,90.15
2022-11-21T02:41:55.016Z,90.61
2022-11-21T02:45:59.341Z,90.71
2022-11-21T02:50:20.128Z,90.84
2022-11-21T02:54:23.403Z,90.47
2022-11-21T02:58:26.844Z,90.18
2022-11-21T03:02:30.237Z,90.13
2022-11-21T03:06:33.562Z,89.90
2022-11-21T03:10:37.319Z,90.29
2022-11-21T03:14:40.619Z,90.42
2022-11-21T03:18:43.909Z,90.04
2022-11-21T03:22:47.201Z,90.35
2022-11-21T03:26:50.555Z,90.52
2022-11-21T03:30:53.841Z,90.56
2022-11-21T03:34:57.149Z,90.18
2022-11-21T03:39:00.687Z,89.73
2022-11-21T03:43:06.291Z,89.82
2022-11-21T03:47:09.597Z,90.04
2022-11-21T03:51:12.907Z,90.12
2022-11-21T03:55:16.328Z,89.77
2022-11-21T03:59:19.778Z,89.97
2022-11-21T04:03:23.127Z,90.17
2022-11-21T04:07:26.474Z,90.31
2022-11-21T04:11:29.865Z,89.73
2022-11-21T04:15:33.163Z,89.11
2022-11-21T04:19:36.519Z,89.07
2022-11-21T04:23:39.851Z,89.00
2022-11-21T04:27:43.197Z,89.02
2022-11-21T04:31:46.516Z,88.72
2022-11-21T04:35:49.865Z,88.69
2022-11-21T04:39:53.229Z,88.71
2022-11-21T04:43:56.555Z,88.92
2022-11-21T04:47:59.867Z,89.21
2022-11-21T04:52:03.495Z,89.24
2022-11-21T04:56:07.433Z,89.41
2022-11-21T05:00:11.408Z,89.69
2022-11-21T05:04:14.935Z,89.80
2022-11-21T05:08:18.279Z,89.60
2022-11-21T05:12:40.306Z,89.14
2022-11-21T05:16:43.614Z,88.99
2022-11-21T05:20:46.910Z,88.43
2022-11-21T05:24:50.216Z,88.20
2022-11-21T05:28:53.492Z,88.24
2022-11-21T05:32:56.842Z,88.58
2022-11-21T05:37:00.313Z,88.58
2022-11-21T05:41:04.276Z,88.90
2022-11-21T05:45:08.504Z,89.08
2022-11-21T05:49:12.520Z,88.88
2022-11-21T05:53:17.020Z,89.13
2022-11-21T05:57:20.358Z,88.91
2022-11-21T06:01:42.312Z,88.69
2022-11-21T06:05:45.649Z,88.63
2022-11-21T06:09:48.959Z,88.59
2022-11-21T06:13:53.701Z,88.79
2022-11-21T06:17:56.992Z,88.97
2022-11-21T06:22:00.352Z,89.24
2022-11-21T06:26:05.804Z,89.78
2022-11-21T06:30:09.664Z,89.70
2022-11-21T06:34:13.050Z,89.35
2022-11-21T06:38:19.044Z,89.01
2022-11-21T06:42:22.306Z,88.86
2022-11-21T06:46:26.730Z,89.05
2022-11-21T06:50:34.173Z,89.05
2022-11-21T06:54:37.458Z,89.03
2022-11-21T06:58:40.782Z,89.57
2022-11-21T07:02:44.078Z,89.96
2022-11-21T07:06:47.443Z,89.99
2022-11-21T07:11:17.846Z,89.98
2022-11-21T07:15:14.633Z,89.79
2022-11-21T07:19:17.929Z,89.47
2022-11-21T07:23:21.289Z,89.61
2022-11-21T07:27:24.692Z,89.93
2022-11-21T07:31:28.044Z,90.28
2022-11-21T07:35:31.928Z,90.32
2022-11-21T07:39:35.320Z,90.11
2022-11-21T07:43:38.611Z,90.19
2022-11-21T07:47:42.597Z,90.30
2022-11-21T07:51:45.917Z,90.43
2022-11-21T07:55:49.233Z,90.55
2022-11-21T07:59:52.563Z,90.63
2022-11-21T08:03:55.867Z,90.71
2022-11-21T08:07:59.185Z,90.75
2022-11-21T08:12:02.508Z,90.86
2022-11-21T08:16:05.990Z,91.19
2022-11-21T08:20:09.962Z,91.46
2022-11-21T08:24:14.902Z,91.81
2022-11-21T08:28:18.191Z,92.02
2022-11-21T08:32:21.540Z,92.19
2022-11-21T08:36:25.431Z,92.05
2022-11-21T08:40:33.597Z,91.87
2022-11-21T08:44:37.129Z,92.10
2022-11-21T08:48:40.497Z,92.22
2022-11-21T08:52:43.900Z,92.35
2022-11-21T08:56:47.625Z,92.44
2022-11-21T09:00:50.955Z,92.34
2022-11-21T09:04:54.471Z,92.22
2022-11-21T09:08:57.943Z,91.93
2022-11-21T09:13:01.275Z,91.81
2022-11-21T09:17:23.239Z,91.84
2022-11-21T09:21:26.757Z,91.53
2022-11-21T09:25:30.052Z,91.33
2022-11-21T09:29:33.453Z,91.21
2022-11-21T09:33:36.819Z,91.23
2022-11-21T09:37:40.603Z,91.30
2022-11-21T09:42:27.736Z,91.48
2022-11-21T09:46:36.194Z,91.30
2022-11-21T09:50:52.424Z,91.18
2022-11-21T09:55:02.165Z,91.13
2022-11-21T09:59:35.376Z,91.22
2022-11-21T10:08:32.778Z,90.96
2022-11-21T10:13:11.870Z,90.84
2022-11-21T10:17:18.179Z,90.86
2022-11-21T10:21:24.572Z,90.73
2022-11-21T10:25:39.074Z,90.76
2022-11-21T10:29:50.860Z,90.85
2022-11-21T10:33:57.054Z,90.83
2022-11-21T10:38:03.210Z,90.71
2022-11-21T10:42:32.511Z,90.47
2022-11-21T10:46:36.112Z,90.16
2022-11-21T10:51:13.984Z,90.23
2022-11-21T10:55:19.004Z,90.39
2022-11-21T10:59:30.966Z,90.59
2022-11-21T11:03:34.704Z,90.91
2022-11-21T11:07:38.147Z,91.03
2022-11-21T11:11:41.535Z,90.89
2022-11-21T11:16:06.029Z,90.84
2022-11-21T11:20:32.032Z,90.84
2022-11-21T11:24:35.335Z,90.92
2022-11-21T11:28:38.674Z,90.97
2022-11-21T11:32:42.433Z,91.07
2022-11-21T11:37:16.389Z,91.16
2022-11-21T11:42:03.331Z,91.07
2022-11-21T11:47:02.714Z,91.03
2022-11-21T11:51:22.041Z,91.10
2022-11-21T11:55:31.283Z,91.13
2022-11-21T11:59:41.012Z,91.25
2022-11-21T12:03:58.177Z,91.41
2022-11-21T12:12:52.757Z,91.69
2022-11-21T12:16:56.213Z,91.69
2022-11-21T12:21:06.653Z,91.65
2022-11-21T12:25:14.064Z,91.61
2022-11-21T12:29:38.473Z,91.40
2022-11-21T12:33:55.028Z,91.46
2022-11-21T12:38:17.044Z,91.48
2022-11-21T12:42:51.266Z,91.33
2022-11-21T12:47:19.490Z,91.05
2022-11-21T12:51:53.891Z,91.00
2022-11-21T12:56:08.287Z,91.07
2022-11-21T13:00:37.528Z,91.22
2022-11-21T13:04:44.510Z,91.37
2022-11-21T13:08:51.905Z,91.27
2022-11-21T13:12:59.903Z,91.13
2022-11-21T13:17:26.264Z,91.16
2022-11-21T13:21:46.137Z,91.03
2022-11-21T13:25:49.762Z,91.20
2022-11-21T13:30:08.084Z,91.49
2022-11-21T13:34:37.660Z,91.61
2022-11-21T13:38:55.855Z,91.55
2022-11-21T13:43:32.570Z,91.54
2022-11-21T13:47:56.716Z,91.59
2022-11-21T13:52:07.099Z,91.69
2022-11-21T13:56:35.094Z,91.62
2022-11-21T14:00:50.221Z,91.56
2022-11-21T14:05:31.262Z,91.67
2022-11-21T14:09:46.225Z,91.56
2022-11-21T14:13:50.605Z,91.49
2022-11-21T14:17:57.502Z,91.42
2022-11-21T14:22:01.296Z,91.78
2022-11-21T14:26:13.030Z,91.96
2022-11-21T14:30:42.645Z,92.08
2022-11-21T14:34:47.064Z,92.07
2022-11-21T14:39:20.818Z,92.05
2022-11-21T14:43:38.300Z,92.16
2022-11-21T14:47:53.135Z,92.18
2022-11-21T14:52:03.181Z,92.28
2022-11-21T14:56:08.500Z,92.29
2022-11-21T15:04:44.593Z,92.30
2022-11-21T15:10:05.750Z,92.20
2022-11-21T15:13:16.503Z,92.05
2022-11-21T15:17:22.790Z,92.19
2022-11-21T15:21:26.166Z,92.34
2022-11-21T15:25:47.255Z,92.45
2022-11-21T15:30:10.119Z,92.72
2022-11-21T15:34:35.172Z,92.80
2022-11-21T15:38:49.534Z,92.99
2022-11-21T15:42:53.020Z,93.04
2022-11-21T15:46:56.477Z,92.92
2022-11-21T15:50:59.895Z,93.01
2022-11-21T15:55:03.233Z,93.08
2022-11-21T15:59:09.701Z,93.17
2022-11-21T16:03:13.053Z,93.20
2022-11-21T16:07:16.380Z,93.20
2022-11-21T16:11:26.695Z,93.30
2022-11-21T16:15:30.089Z,93.44
2022-11-21T16:19:33.449Z,93.57
2022-11-21T16:23:36.926Z,93.57
2022-11-21T16:27:40.261Z,93.57
2022-11-21T16:31:43.713Z,93.71
2022-11-21T16:35:47.176Z,93.74
2022-11-21T16:39:52.355Z,93.81
2022-11-21T16:43:56.373Z,93.92
2022-11-21T16:47:59.692Z,93.86
2022-11-21T16:52:02.983Z,93.73
2022-11-21T16:56:06.961Z,93.69
2022-11-21T17:00:12.314Z,93.79
2022-11-21T17:04:17.418Z,93.80
2022-11-21T17:08:21.139Z,93.73
2022-11-21T17:12:24.905Z,93.70
2022-11-21T17:16:28.860Z,93.70
2022-11-21T17:20:32.175Z,93.72
2022-11-21T17:24:35.584Z,93.74
2022-11-21T17:28:44.989Z,93.75
2022-11-21T17:32:49.229Z,93.73
2022-11-21T17:36:52.559Z,93.87
2022-11-21T17:41:06.624Z,93.78
2022-11-21T17:45:10.312Z,93.74
2022-11-21T17:49:13.924Z,93.82
2022-11-21T17:53:17.518Z,93.65
2022-11-21T17:57:22.169Z,93.62
2022-11-21T18:01:26.001Z,93.62
2022-11-21T18:05:29.365Z,93.72
2022-11-21T18:09:32.769Z,93.72
2022-11-21T18:13:37.419Z,93.79
2022-11-21T18:17:40.776Z,94.10
2022-11-21T18:21:44.185Z,94.07
2022-11-21T18:25:47.639Z,94.00
2022-11-21T18:29:51.132Z,94.00
2022-11-21T18:33:56.863Z,93.91
2022-11-21T18:38:00.276Z,94.09
2022-11-21T18:42:03.671Z,94.26
2022-11-21T18:46:11.947Z,94.18
2022-11-21T18:50:16.245Z,94.22
2022-11-21T18:54:19.677Z,94.17
2022-11-21T18:58:23.538Z,94.22
2022-11-21T19:02:27.075Z,94.27
2022-11-21T19:06:31.570Z,94.34
2022-11-21T19:10:45.248Z,94.21
2022-11-21T19:14:52.173Z,94.10
2022-11-21T19:19:26.386Z,94.12
2022-11-21T19:23:20.590Z,94.23
2022-11-21T19:27:24.998Z,94.28
2022-11-21T19:31:28.414Z,94.37
2022-11-21T19:35:31.926Z,94.34
2022-11-21T19:39:35.568Z,94.31
2022-11-21T19:43:45.496Z,94.33
2022-11-21T19:47:52.336Z,94.50
2022-11-21T19:51:55.879Z,94.51
2022-11-21T19:55:59.447Z,94.57
2022-11-21T20:00:02.841Z,94.49
2022-11-21T20:04:13.256Z,94.51
2022-11-21T20:08:17.992Z,94.42
2022-11-21T20:12:21.664Z,94.36
2022-11-21T20:16:28.781Z,94.28
2022-11-21T20:20:32.092Z,94.44
2022-11-21T20:24:41.550Z,94.55
2022-11-21T20:28:46.221Z,94.56
2022-11-21T20:32:49.669Z,94.57
2022-11-21T20:36:53.046Z,94.43
2022-11-21T20:40:56.568Z,94.42
2022-11-21T20:49:23.363Z,94.54
2022-11-21T20:57:51.841Z,94.50
2022-11-21T21:01:55.354Z,94.45
2022-11-21T21:06:05.668Z,94.59
2022-11-21T21:10:10.816Z,94.72
2022-11-21T21:14:14.235Z,94.76
2022-11-21T21:18:17.672Z,94.68
2022-11-21T21:22:21.599Z,94.55
2022-11-21T21:26:37.297Z,94.47
2022-11-21T21:30:45.254Z,94.51
2022-11-21T21:34:48.606Z,94.61
2022-11-21T21:38:54.548Z,94.66
2022-11-21T21:42:58.104Z,94.71
2022-11-21T21:47:01.790Z,94.68
2022-11-21T21:51:22.323Z,94.61
2022-11-21T21:55:25.701Z,94.43
2022-11-21T21:59:30.319Z,94.45
2022-11-21T22:03:34.765Z,94.40
2022-11-21T22:07:38.160Z,94.50
2022-11-21T22:11:41.691Z,94.52
2022-11-21T22:15:45.298Z,94.41
2022-11-21T22:19:48.731Z,94.38
2022-11-21T22:28:16.090Z,94.32
2022-11-21T22:32:20.104Z,94.33
2022-11-21T22:36:23.678Z,94.35
2022-11-21T22:40:27.049Z,94.28
2022-11-21T22:44:30.754Z,94.45
2022-11-21T22:48:36.340Z,94.37
2022-11-21T22:52:39.806Z,94.28
2022-11-21T22:56:43.266Z,94.17
2022-11-21T23:00:46.638Z,94.16
2022-11-21T23:04:50.021Z,94.16
2022-11-21T23:08:55.677Z,94.30
2022-11-21T23:12:59.268Z,94.40
2022-11-21T23:17:02.633Z,94.52
2022-11-21T23:21:06.480Z,94.58
2022-11-21T23:25:10.053Z,94.63
2022-11-21T23:29:13.465Z,94.40
2022-11-21T23:33:17.399Z,94.38
2022-11-21T23:37:21.739Z,94.41
2022-11-21T23:41:25.058Z,94.40
2022-11-21T23:45:28.483Z,94.39
2022-11-21T23:49:31.969Z,94.48
2022-11-21T23:53:35.783Z,94.63
2022-11-21T23:57:39.167Z,94.56
